createdAt,value
2023-02-17T00:00:42.664Z,0.00
2023-02-17T00:01:42.689Z,0.00
2023-02-17T00:02:42.687Z,0.00
2023-02-17T00:03:42.660Z,0.00
2023-02-17T00:04:42.624Z,0.00
2023-02-17T00:05:42.614Z,0.00
2023-02-17T00:06:42.598Z,0.00
2023-02-17T00:07:42.610Z,0.00
2023-02-17T00:08:42.598Z,0.00
2023-02-17T00:09:42.575Z,0.00
2023-02-17T00:10:42.558Z,0.00
2023-02-17T00:11:42.547Z,0.00
2023-02-17T00:12:42.534Z,0.00
2023-02-17T00:13:42.555Z,0.00
2023-02-17T00:14:42.523Z,0.00
2023-02-17T00:15:42.549Z,0.00
2023-02-17T00:16:42.493Z,0.00
2023-02-17T00:17:42.488Z,0.00
2023-02-17T00:18:42.479Z,0.00
2023-02-17T00:19:42.492Z,0.00
2023-02-17T00:20:42.447Z,0.00
2023-02-17T00:21:42.449Z,0.00
2023-02-17T00:22:42.427Z,0.00
2023-02-17T00:23:42.425Z,0.00
2023-02-17T00:24:42.414Z,0.00
2023-02-17T00:25:42.429Z,0.00
2023-02-17T00:26:42.381Z,0.00
2023-02-17T00:27:42.373Z,0.00
2023-02-17T00:28:49.883Z,0.00
2023-02-17T00:29:49.896Z,0.00
2023-02-17T00:30:42.342Z,0.00
2023-02-17T00:31:50.022Z,0.00
2023-02-17T00:32:42.322Z,0.00
2023-02-17T00:33:49.840Z,0.00
2023-02-17T00:34:49.815Z,0.00
2023-02-17T00:35:49.835Z,0.00
2023-02-17T00:36:49.802Z,0.00
2023-02-17T00:37:42.274Z,0.00
2023-02-17T00:38:42.259Z,0.00
2023-02-17T00:39:42.247Z,0.00
2023-02-17T00:40:42.240Z,0.00
2023-02-17T00:41:49.762Z,0.00
2023-02-17T00:42:42.213Z,0.00
2023-02-17T00:43:49.729Z,0.00
2023-02-17T00:44:42.192Z,0.00
2023-02-17T00:45:42.196Z,0.00
2023-02-17T00:46:42.282Z,0.00
2023-02-17T00:47:42.189Z,0.00
2023-02-17T00:48:42.214Z,0.00
2023-02-17T00:49:42.225Z,0.00
2023-02-17T00:50:42.196Z,0.00
2023-02-17T00:51:42.119Z,0.00
2023-02-17T00:52:42.120Z,0.00
2023-02-17T00:53:42.177Z,0.00
2023-02-17T00:54:42.083Z,0.00
2023-02-17T00:55:42.079Z,0.00
2023-02-17T00:56:42.063Z,0.00
2023-02-17T00:57:42.055Z,0.00
2023-02-17T00:58:42.108Z,0.00
2023-02-17T00:59:42.042Z,0.00
2023-02-17T01:00:42.026Z,0.00
2023-02-17T01:01:42.074Z,0.00
2023-02-17T01:02:41.998Z,0.00
2023-02-17T01:03:42.026Z,0.00
2023-02-17T01:04:42.042Z,0.00
2023-02-17T01:05:41.977Z,0.00
2023-02-17T01:06:41.951Z,0.00
2023-02-17T01:07:41.943Z,0.00
2023-02-17T01:08:41.941Z,0.00
2023-02-17T01:09:41.930Z,0.00
2023-02-17T01:10:41.937Z,0.00
2023-02-17T01:11:41.911Z,0.00
2023-02-17T01:12:41.889Z,0.00
2023-02-17T01:13:41.886Z,0.00
2023-02-17T01:14:41.869Z,0.00
2023-02-17T01:15:41.902Z,0.00
2023-02-17T01:16:41.881Z,0.00
2023-02-17T01:17:41.948Z,0.00
2023-02-17T01:18:41.836Z,0.00
2023-02-17T01:19:41.835Z,0.00
2023-02-17T01:20:41.802Z,0.00
2023-02-17T01:21:41.793Z,0.00
2023-02-17T01:22:41.806Z,0.00
2023-02-17T01:23:41.785Z,0.00
2023-02-17T01:24:41.758Z,0.00
2023-02-17T01:25:41.761Z,0.00
2023-02-17T01:26:41.738Z,0.00
2023-02-17T01:27:41.727Z,0.00
2023-02-17T01:28:41.758Z,0.00
2023-02-17T01:29:41.714Z,0.00
2023-02-17T01:30:41.715Z,0.00
2023-02-17T01:31:41.947Z,0.00
2023-02-17T01:32:41.669Z,0.00
2023-02-17T01:33:41.661Z,0.00
2023-02-17T01:34:41.683Z,0.00
2023-02-17T01:35:41.668Z,0.00
2023-02-17T01:36:41.623Z,0.00
2023-02-17T01:37:41.631Z,0.00
2023-02-17T01:38:41.602Z,0.00
2023-02-17T01:39:41.593Z,0.00
2023-02-17T01:40:41.622Z,0.00
2023-02-17T01:41:41.584Z,0.00
2023-02-17T01:42:41.568Z,0.00
2023-02-17T01:43:41.548Z,0.00
2023-02-17T01:44:41.546Z,0.00
2023-02-17T01:45:41.547Z,0.00
2023-02-17T01:46:41.605Z,0.00
2023-02-17T01:47:41.519Z,0.00
2023-02-17T01:48:41.497Z,0.00
2023-02-17T01:49:41.486Z,0.00
2023-02-17T01:50:41.467Z,0.00
2023-02-17T01:51:41.479Z,0.00
2023-02-17T01:52:41.488Z,0.00
2023-02-17T01:53:41.481Z,0.00
2023-02-17T01:54:41.425Z,0.00
2023-02-17T01:55:41.416Z,0.00
2023-02-17T01:56:41.406Z,0.00
2023-02-17T01:57:41.405Z,0.00
2023-02-17T01:58:41.428Z,0.00
2023-02-17T01:59:41.375Z,0.00
2023-02-17T02:00:41.378Z,0.00
2023-02-17T02:01:41.501Z,0.00
2023-02-17T02:02:41.448Z,0.00
2023-02-17T02:03:41.332Z,0.00
2023-02-17T02:04:41.344Z,0.00
2023-02-17T02:05:41.320Z,0.00
2023-02-17T02:06:41.307Z,0.00
2023-02-17T02:07:41.312Z,0.00
2023-02-17T02:08:41.269Z,0.00
2023-02-17T02:09:41.261Z,0.00
2023-02-17T02:10:41.286Z,0.00
2023-02-17T02:11:41.239Z,0.00
2023-02-17T02:12:41.255Z,0.00
2023-02-17T02:13:41.221Z,0.00
2023-02-17T02:14:41.206Z,0.00
2023-02-17T02:15:41.201Z,0.00
2023-02-17T02:16:41.236Z,0.00
2023-02-17T02:17:41.187Z,0.00
2023-02-17T02:18:41.185Z,0.00
2023-02-17T02:19:41.157Z,0.00
2023-02-17T02:20:41.148Z,0.00
2023-02-17T02:21:41.146Z,0.00
2023-02-17T02:22:41.170Z,0.00
2023-02-17T02:23:41.159Z,0.00
2023-02-17T02:24:41.100Z,0.00
2023-02-17T02:25:41.099Z,0.00
2023-02-17T02:26:41.087Z,0.00
2023-02-17T02:27:41.071Z,0.00
2023-02-17T02:28:41.081Z,0.00
2023-02-17T02:29:41.063Z,0.00
2023-02-17T02:30:41.066Z,0.00
2023-02-17T02:31:41.037Z,0.00
2023-02-17T02:32:41.024Z,0.00
2023-02-17T02:33:41.009Z,0.00
2023-02-17T02:34:41.032Z,0.00
2023-02-17T02:35:40.983Z,0.00
2023-02-17T02:36:40.969Z,0.00
2023-02-17T02:37:40.962Z,0.00
2023-02-17T02:38:40.953Z,0.00
2023-02-17T02:39:40.974Z,0.00
2023-02-17T02:40:40.962Z,0.00
2023-02-17T02:41:40.927Z,0.00
2023-02-17T02:42:40.905Z,0.00
2023-02-17T02:43:40.901Z,0.00
2023-02-17T02:44:40.899Z,0.00
2023-02-17T02:45:40.898Z,0.00
2023-02-17T02:46:40.907Z,0.00
2023-02-17T02:47:40.855Z,0.00
2023-02-17T02:48:40.859Z,0.00
2023-02-17T02:49:40.834Z,0.00
2023-02-17T02:50:40.816Z,0.00
2023-02-17T02:51:40.810Z,0.00
2023-02-17T02:52:40.845Z,0.00
2023-02-17T02:53:40.791Z,0.00
2023-02-17T02:54:40.774Z,0.00
2023-02-17T02:55:40.799Z,0.00
2023-02-17T02:56:40.774Z,0.00
2023-02-17T02:57:40.743Z,0.00
2023-02-17T02:58:40.763Z,0.00
2023-02-17T02:59:40.722Z,0.00
2023-02-17T03:00:40.718Z,0.00
2023-02-17T03:01:40.792Z,0.00
2023-02-17T03:02:40.684Z,0.00
2023-02-17T03:03:40.748Z,0.00
2023-02-17T03:04:40.691Z,0.00
2023-02-17T03:05:40.657Z,0.00
2023-02-17T03:06:40.644Z,0.00
2023-02-17T03:07:40.652Z,0.00
2023-02-17T03:08:40.627Z,0.00
2023-02-17T03:09:40.612Z,0.00
2023-02-17T03:10:40.627Z,0.00
2023-02-17T03:11:40.629Z,0.00
2023-02-17T03:12:40.578Z,0.00
2023-02-17T03:13:40.581Z,0.00
2023-02-17T03:14:40.553Z,0.00
2023-02-17T03:15:40.546Z,0.00
2023-02-17T03:16:40.666Z,0.00
2023-02-17T03:17:40.527Z,0.00
2023-02-17T03:18:40.525Z,0.00
2023-02-17T03:19:40.503Z,0.00
2023-02-17T03:20:40.490Z,0.00
2023-02-17T03:21:40.481Z,0.00
2023-02-17T03:22:40.565Z,0.00
2023-02-17T03:23:40.460Z,0.00
2023-02-17T03:24:40.453Z,0.00
2023-02-17T03:25:40.439Z,0.00
2023-02-17T03:26:40.530Z,0.00
2023-02-17T03:27:40.448Z,0.00
2023-02-17T03:28:40.439Z,0.00
2023-02-17T03:29:40.403Z,0.00
2023-02-17T03:30:40.380Z,0.00
2023-02-17T03:31:40.590Z,0.00
2023-02-17T03:32:40.369Z,0.00
2023-02-17T03:33:40.362Z,0.00
2023-02-17T03:34:40.362Z,0.00
2023-02-17T03:35:40.330Z,0.00
2023-02-17T03:36:40.317Z,0.00
2023-02-17T03:37:40.310Z,0.00
2023-02-17T03:38:40.296Z,0.00
2023-02-17T03:39:40.310Z,0.00
2023-02-17T03:40:40.310Z,0.00
2023-02-17T03:41:40.262Z,0.00
2023-02-17T03:42:40.248Z,0.00
2023-02-17T03:43:40.261Z,0.00
2023-02-17T03:44:40.232Z,0.00
2023-02-17T03:45:40.288Z,0.00
2023-02-17T03:46:40.226Z,0.00
2023-02-17T03:47:40.200Z,0.00
2023-02-17T03:48:40.192Z,0.00
2023-02-17T03:49:40.180Z,0.00
2023-02-17T03:50:40.176Z,0.00
2023-02-17T03:51:40.150Z,0.00
2023-02-17T03:52:40.157Z,0.00
2023-02-17T03:53:40.132Z,0.00
2023-02-17T03:54:40.123Z,0.00
2023-02-17T03:55:40.115Z,0.00
2023-02-17T03:56:40.116Z,0.00
2023-02-17T03:57:40.084Z,0.00
2023-02-17T03:58:40.130Z,0.00
2023-02-17T03:59:40.086Z,0.00
2023-02-17T04:00:40.056Z,0.00
2023-02-17T04:01:40.157Z,0.00
2023-02-17T04:02:42.145Z,0.00
2023-02-17T04:03:40.036Z,0.00
2023-02-17T04:04:40.042Z,0.00
2023-02-17T04:05:40.006Z,0.00
2023-02-17T04:06:39.990Z,0.00
2023-02-17T04:07:39.987Z,0.00
2023-02-17T04:08:39.996Z,0.00
2023-02-17T04:09:39.951Z,0.00
2023-02-17T04:10:39.980Z,0.00
2023-02-17T04:11:39.930Z,0.00
2023-02-17T04:12:39.925Z,0.00
2023-02-17T04:13:39.936Z,0.00
2023-02-17T04:14:39.900Z,0.00
2023-02-17T04:15:39.953Z,0.00
2023-02-17T04:16:39.917Z,0.00
2023-02-17T04:17:39.878Z,0.00
2023-02-17T04:18:39.878Z,0.00
2023-02-17T04:19:39.846Z,0.00
2023-02-17T04:20:39.833Z,0.00
2023-02-17T04:21:39.831Z,0.00
2023-02-17T04:22:39.831Z,0.00
2023-02-17T04:23:39.812Z,0.00
2023-02-17T04:24:39.792Z,0.00
2023-02-17T04:25:39.777Z,0.00
2023-02-17T04:26:39.768Z,0.00
2023-02-17T04:27:39.753Z,0.00
2023-02-17T04:28:39.788Z,0.00
2023-02-17T04:29:39.751Z,0.00
2023-02-17T04:30:39.734Z,0.00
2023-02-17T04:31:39.870Z,0.00
2023-02-17T04:32:39.702Z,0.00
2023-02-17T04:33:39.695Z,0.00
2023-02-17T04:34:39.712Z,0.00
2023-02-17T04:35:39.670Z,0.00
2023-02-17T04:36:39.662Z,0.00
2023-02-17T04:37:39.655Z,0.00
2023-02-17T04:38:39.638Z,0.00
2023-02-17T04:39:39.625Z,0.00
2023-02-17T04:40:39.656Z,0.00
2023-02-17T04:41:39.603Z,0.00
2023-02-17T04:42:39.604Z,0.00
2023-02-17T04:43:39.582Z,0.00
2023-02-17T04:44:39.572Z,0.00
2023-02-17T04:45:39.555Z,0.00
2023-02-17T04:46:39.572Z,0.00
2023-02-17T04:47:39.571Z,0.00
2023-02-17T04:48:39.539Z,0.00
2023-02-17T04:49:39.512Z,0.00
2023-02-17T04:50:39.505Z,0.00
2023-02-17T04:51:39.505Z,0.00
2023-02-17T04:52:39.540Z,0.00
2023-02-17T04:53:39.479Z,0.00
2023-02-17T04:54:39.458Z,0.00
2023-02-17T04:55:39.446Z,0.00
2023-02-17T04:56:39.453Z,0.00
2023-02-17T04:57:39.425Z,0.00
2023-02-17T04:58:39.443Z,0.00
2023-02-17T04:59:39.506Z,0.00
2023-02-17T05:00:39.397Z,0.00
2023-02-17T05:01:39.408Z,0.00
2023-02-17T05:02:39.380Z,0.00
2023-02-17T05:03:39.377Z,0.00
2023-02-17T05:04:39.430Z,0.00
2023-02-17T05:05:39.349Z,0.00
2023-02-17T05:06:39.338Z,0.00
2023-02-17T05:07:39.316Z,0.00
2023-02-17T05:08:39.313Z,0.00
2023-02-17T05:09:39.293Z,0.00
2023-02-17T05:10:39.350Z,0.00
2023-02-17T05:11:39.273Z,0.00
2023-02-17T05:12:39.271Z,0.00
2023-02-17T05:13:39.254Z,0.00
2023-02-17T05:14:39.245Z,0.00
2023-02-17T05:15:39.371Z,0.00
2023-02-17T05:16:39.265Z,0.00
2023-02-17T05:17:39.219Z,0.00
2023-02-17T05:18:39.200Z,0.00
2023-02-17T05:19:39.221Z,0.00
2023-02-17T05:20:39.195Z,0.00
2023-02-17T05:21:39.162Z,0.00
2023-02-17T05:22:39.184Z,0.00
2023-02-17T05:23:39.140Z,0.00
2023-02-17T05:24:39.130Z,0.00
2023-02-17T05:25:39.122Z,0.00
2023-02-17T05:26:39.150Z,0.00
2023-02-17T05:27:39.098Z,0.00
2023-02-17T05:28:39.116Z,0.00
2023-02-17T05:29:39.078Z,0.00
2023-02-17T05:30:39.103Z,0.00
2023-02-17T05:31:39.150Z,0.00
2023-02-17T05:32:39.057Z,0.00
2023-02-17T05:33:39.029Z,0.00
2023-02-17T05:34:39.025Z,0.00
2023-02-17T05:35:39.040Z,0.00
2023-02-17T05:36:39.003Z,0.00
2023-02-17T05:37:39.012Z,0.00
2023-02-17T05:38:39.019Z,0.00
2023-02-17T05:39:39.004Z,0.00
2023-02-17T05:40:38.976Z,0.00
2023-02-17T05:41:38.971Z,0.00
2023-02-17T05:42:38.948Z,0.00
2023-02-17T05:43:38.934Z,0.00
2023-02-17T05:44:38.916Z,0.00
2023-02-17T05:45:38.907Z,0.00
2023-02-17T05:46:39.054Z,0.00
2023-02-17T05:47:38.924Z,0.00
2023-02-17T05:48:38.876Z,0.00
2023-02-17T05:49:38.867Z,0.00
2023-02-17T05:50:38.850Z,0.00
2023-02-17T05:51:38.858Z,0.00
2023-02-17T05:52:38.862Z,4.00
2023-02-17T05:53:38.836Z,0.00
2023-02-17T05:54:38.808Z,4.00
2023-02-17T05:55:38.800Z,4.00
2023-02-17T05:56:38.786Z,4.00
2023-02-17T05:57:38.775Z,8.00
2023-02-17T05:58:38.779Z,8.00
2023-02-17T05:59:38.796Z,12.00
2023-02-17T06:00:38.749Z,12.00
2023-02-17T06:01:38.730Z,16.00
2023-02-17T06:02:38.747Z,20.00
2023-02-17T06:03:38.810Z,28.00
2023-02-17T06:04:38.797Z,32.00
2023-02-17T06:05:38.710Z,40.00
2023-02-17T06:06:38.685Z,48.00
2023-02-17T06:07:38.687Z,60.00
2023-02-17T06:08:38.664Z,68.00
2023-02-17T06:09:38.664Z,80.00
2023-02-17T06:10:38.637Z,92.00
2023-02-17T06:11:38.669Z,100.00
2023-02-17T06:12:38.623Z,112.00
2023-02-17T06:13:38.600Z,128.00
2023-02-17T06:14:38.599Z,148.00
2023-02-17T06:15:38.593Z,168.00
2023-02-17T06:16:38.574Z,188.00
2023-02-17T06:17:38.590Z,216.00
2023-02-17T06:18:38.555Z,240.00
2023-02-17T06:19:38.538Z,272.00
2023-02-17T06:20:38.548Z,308.00
2023-02-17T06:21:38.516Z,340.00
2023-02-17T06:22:38.507Z,372.00
2023-02-17T06:23:38.519Z,404.00
2023-02-17T06:24:38.489Z,436.00
2023-02-17T06:25:38.471Z,472.00
2023-02-17T06:26:38.499Z,512.00
2023-02-17T06:27:38.449Z,548.00
2023-02-17T06:28:38.451Z,596.00
2023-02-17T06:29:38.440Z,640.00
2023-02-17T06:30:38.420Z,692.00
2023-02-17T06:31:38.462Z,744.00
2023-02-17T06:32:38.406Z,796.00
2023-02-17T06:33:38.384Z,868.00
2023-02-17T06:34:38.384Z,944.00
2023-02-17T06:35:38.401Z,1008.00
2023-02-17T06:36:38.350Z,1092.00
2023-02-17T06:37:38.336Z,1192.00
2023-02-17T06:38:38.340Z,1300.00
2023-02-17T06:39:38.338Z,1400.00
2023-02-17T06:40:38.313Z,1488.00
2023-02-17T06:41:38.354Z,1556.00
2023-02-17T06:42:38.286Z,1588.00
2023-02-17T06:43:38.296Z,1616.00
2023-02-17T06:44:38.262Z,1672.00
2023-02-17T06:45:38.280Z,1772.00
2023-02-17T06:46:38.249Z,1892.00
2023-02-17T06:47:38.249Z,2016.00
2023-02-17T06:48:38.227Z,2120.00
2023-02-17T06:49:40.625Z,2204.00
2023-02-17T06:50:38.217Z,2296.00
2023-02-17T06:51:38.181Z,2408.00
2023-02-17T06:52:38.176Z,2696.00
2023-02-17T06:53:38.193Z,3076.00
2023-02-17T06:54:38.152Z,3276.00
2023-02-17T06:55:38.164Z,3332.00
2023-02-17T06:56:38.132Z,3372.00
2023-02-17T06:57:38.116Z,3536.00
2023-02-17T06:58:38.133Z,3888.00
2023-02-17T06:59:38.113Z,4092.00
2023-02-17T07:00:38.088Z,4100.00
2023-02-17T07:01:38.084Z,4084.00
2023-02-17T07:02:38.209Z,4096.00
2023-02-17T07:03:38.053Z,4128.00
2023-02-17T07:04:38.059Z,4248.00
2023-02-17T07:05:38.047Z,4688.00
2023-02-17T07:06:38.040Z,5516.00
2023-02-17T07:07:38.009Z,6256.00
2023-02-17T07:08:38.105Z,6664.00
2023-02-17T07:09:37.989Z,6772.00
2023-02-17T07:10:37.987Z,6848.00
2023-02-17T07:11:37.990Z,6912.00
2023-02-17T07:12:37.961Z,6656.00
2023-02-17T07:13:37.955Z,6256.00
2023-02-17T07:14:37.962Z,6056.00
2023-02-17T07:15:37.932Z,6416.00
2023-02-17T07:16:37.999Z,6672.00
2023-02-17T07:17:37.949Z,7208.00
2023-02-17T07:18:37.901Z,8072.00
2023-02-17T07:19:37.882Z,9016.00
2023-02-17T07:20:39.336Z,9540.00
2023-02-17T07:21:37.862Z,10248.00
2023-02-17T07:22:37.853Z,11380.00
2023-02-17T07:23:37.864Z,11984.00
2023-02-17T07:24:37.834Z,12216.00
2023-02-17T07:25:37.832Z,11536.00
2023-02-17T07:26:37.810Z,10744.00
2023-02-17T07:27:37.811Z,10616.00
2023-02-17T07:28:37.786Z,10940.00
2023-02-17T07:29:37.802Z,11292.00
2023-02-17T07:30:37.765Z,11576.00
2023-02-17T07:31:37.807Z,11360.00
2023-02-17T07:32:37.746Z,10752.00
2023-02-17T07:33:37.739Z,9552.00
2023-02-17T07:34:37.735Z,8428.00
2023-02-17T07:35:37.785Z,7496.00
2023-02-17T07:36:37.703Z,7024.00
2023-02-17T07:37:37.695Z,7444.00
2023-02-17T07:38:37.689Z,7624.00
2023-02-17T07:39:37.662Z,7588.00
2023-02-17T07:40:37.653Z,7624.00
2023-02-17T07:41:37.657Z,7788.00
2023-02-17T07:42:37.635Z,7840.00
2023-02-17T07:43:37.648Z,8124.00
2023-02-17T07:44:37.609Z,8692.00
2023-02-17T07:45:37.633Z,8904.00
2023-02-17T07:46:37.588Z,8752.00
2023-02-17T07:47:37.597Z,8548.00
2023-02-17T07:48:37.570Z,8292.00
2023-02-17T07:49:37.562Z,8072.00
2023-02-17T07:50:37.544Z,8180.00
2023-02-17T07:51:37.536Z,8808.00
2023-02-17T07:52:37.533Z,9340.00
2023-02-17T07:53:37.557Z,9988.00
2023-02-17T07:54:37.499Z,10408.00
2023-02-17T07:55:37.484Z,10724.00
2023-02-17T07:56:37.478Z,10824.00
2023-02-17T07:57:37.470Z,10848.00
2023-02-17T07:58:37.473Z,11020.00
2023-02-17T07:59:37.473Z,11292.00
2023-02-17T08:00:37.433Z,11536.00
2023-02-17T08:01:37.460Z,11724.00
2023-02-17T08:02:37.428Z,12192.00
2023-02-17T08:03:37.410Z,12764.00
2023-02-17T08:04:37.478Z,13284.00
2023-02-17T08:05:37.402Z,13904.00
2023-02-17T08:06:37.376Z,14360.00
2023-02-17T08:07:37.357Z,14528.00
2023-02-17T08:08:37.346Z,14952.00
2023-02-17T08:09:37.353Z,15328.00
2023-02-17T08:10:37.336Z,15564.00
2023-02-17T08:11:37.351Z,15512.00
2023-02-17T08:12:37.305Z,15516.00
2023-02-17T08:13:37.337Z,15564.00
2023-02-17T08:14:37.280Z,15824.00
2023-02-17T08:15:37.326Z,15784.00
2023-02-17T08:16:37.358Z,15928.00
2023-02-17T08:17:37.287Z,16268.00
2023-02-17T08:18:37.241Z,16564.00
2023-02-17T08:19:47.055Z,16620.00
2023-02-17T08:20:38.218Z,16992.00
2023-02-17T08:21:37.243Z,17504.00
2023-02-17T08:22:37.200Z,17952.00
2023-02-17T08:23:37.222Z,17856.00
2023-02-17T08:24:37.178Z,17920.00
2023-02-17T08:25:37.170Z,17952.00
2023-02-17T08:26:37.270Z,18688.00
2023-02-17T08:27:37.148Z,19776.00
2023-02-17T08:28:37.154Z,21216.00
2023-02-17T08:29:37.193Z,21792.00
2023-02-17T08:30:37.230Z,21856.00
2023-02-17T08:31:37.228Z,22272.00
2023-02-17T08:32:37.124Z,23776.00
2023-02-17T08:33:37.079Z,22432.00
2023-02-17T08:34:37.090Z,22336.00
2023-02-17T08:35:37.066Z,22912.00
2023-02-17T08:36:37.041Z,22624.00
2023-02-17T08:37:37.058Z,22240.00
2023-02-17T08:38:37.071Z,22048.00
2023-02-17T08:39:37.035Z,21888.00
2023-02-17T08:40:37.016Z,22272.00
2023-02-17T08:41:36.998Z,22400.00
2023-02-17T08:42:36.981Z,22784.00
2023-02-17T08:43:36.988Z,20896.00
2023-02-17T08:44:37.006Z,21088.00
2023-02-17T08:45:36.994Z,22528.00
2023-02-17T08:46:37.007Z,24352.00
2023-02-17T08:47:36.940Z,26848.00
2023-02-17T08:48:36.918Z,28256.00
2023-02-17T08:49:36.938Z,29344.00
2023-02-17T08:50:36.916Z,33024.00
2023-02-17T08:51:36.930Z,30272.00
2023-02-17T08:52:36.874Z,27936.00
2023-02-17T08:53:36.870Z,27968.00
2023-02-17T08:54:36.844Z,25696.00
2023-02-17T08:55:48.535Z,24864.00
2023-02-17T08:56:37.842Z,24256.00
2023-02-17T08:57:36.812Z,24160.00
2023-02-17T08:58:36.859Z,23424.00
2023-02-17T08:59:36.806Z,22880.00
2023-02-17T09:00:36.779Z,22560.00
2023-02-17T09:01:36.868Z,22528.00
2023-02-17T09:02:36.778Z,23968.00
2023-02-17T09:03:36.774Z,26240.00
2023-02-17T09:04:36.849Z,25824.00
2023-02-17T09:05:36.722Z,26208.00
2023-02-17T09:06:36.708Z,26752.00
2023-02-17T09:07:36.715Z,25664.00
2023-02-17T09:08:36.708Z,25216.00
2023-02-17T09:09:36.695Z,50336.00
2023-02-17T09:10:36.676Z,45504.00
2023-02-17T09:11:36.709Z,81248.00
2023-02-17T09:12:36.653Z,81056.00
2023-02-17T09:13:36.714Z,83104.00
2023-02-17T09:14:36.620Z,86432.00
2023-02-17T09:15:36.693Z,86944.00
2023-02-17T09:16:36.617Z,86880.00
2023-02-17T09:17:36.610Z,89792.00
2023-02-17T09:18:36.596Z,64864.00
2023-02-17T09:19:36.595Z,66336.00
2023-02-17T09:20:36.613Z,82368.00
2023-02-17T09:21:36.558Z,61344.00
2023-02-17T09:22:36.569Z,67424.00
2023-02-17T09:23:36.547Z,56416.00
2023-02-17T09:24:36.518Z,70752.00
2023-02-17T09:25:36.520Z,60864.00
2023-02-17T09:26:36.521Z,55840.00
2023-02-17T09:27:36.497Z,97120.00
2023-02-17T09:28:36.487Z,96672.00
2023-02-17T09:29:36.463Z,93216.00
2023-02-17T09:30:36.501Z,89216.00
2023-02-17T09:31:36.578Z,86688.00
2023-02-17T09:32:36.487Z,94176.00
2023-02-17T09:33:36.430Z,95488.00
2023-02-17T09:34:36.407Z,95136.00
2023-02-17T09:35:36.460Z,98112.00
2023-02-17T09:36:36.395Z,98848.00
2023-02-17T09:37:36.430Z,84960.00
2023-02-17T09:38:36.360Z,75904.00
2023-02-17T09:39:36.419Z,91520.00
2023-02-17T09:40:36.370Z,41600.00
2023-02-17T09:41:36.391Z,38720.00
2023-02-17T09:42:36.350Z,43072.00
2023-02-17T09:43:36.337Z,52768.00
2023-02-17T09:44:36.302Z,45376.00
2023-02-17T09:45:36.333Z,46944.00
2023-02-17T09:46:36.320Z,49888.00
2023-02-17T09:47:36.266Z,47552.00
2023-02-17T09:48:36.342Z,39840.00
2023-02-17T09:49:36.250Z,40512.00
2023-02-17T09:50:36.296Z,37824.00
2023-02-17T09:51:36.264Z,35072.00
2023-02-17T09:52:36.251Z,34976.00
2023-02-17T09:53:36.267Z,34816.00
2023-02-17T09:54:36.183Z,40416.00
2023-02-17T09:55:36.278Z,30240.00
2023-02-17T09:56:36.242Z,27232.00
2023-02-17T09:57:36.172Z,25632.00
2023-02-17T09:58:36.195Z,25760.00
2023-02-17T09:59:36.208Z,24544.00
2023-02-17T10:00:36.151Z,23680.00
2023-02-17T10:01:36.134Z,23936.00
2023-02-17T10:02:36.090Z,26240.00
2023-02-17T10:03:36.196Z,29088.00
2023-02-17T10:04:36.214Z,30720.00
2023-02-17T10:05:36.072Z,32192.00
2023-02-17T10:06:36.048Z,32864.00
2023-02-17T10:07:36.060Z,32832.00
2023-02-17T10:08:36.036Z,33216.00
2023-02-17T10:09:36.105Z,32992.00
2023-02-17T10:10:36.033Z,32032.00
2023-02-17T10:11:36.031Z,30112.00
2023-02-17T10:12:35.980Z,27776.00
2023-02-17T10:13:35.972Z,26720.00
2023-02-17T10:14:35.984Z,26656.00
2023-02-17T10:15:35.956Z,28384.00
2023-02-17T10:16:36.029Z,30976.00
2023-02-17T10:17:35.989Z,33088.00
2023-02-17T10:18:35.952Z,34880.00
2023-02-17T10:19:35.992Z,35872.00
2023-02-17T10:20:35.960Z,36416.00
2023-02-17T10:21:35.882Z,41632.00
2023-02-17T10:22:35.923Z,36800.00
2023-02-17T10:23:35.883Z,35680.00
2023-02-17T10:24:35.862Z,35936.00
2023-02-17T10:25:35.837Z,36576.00
2023-02-17T10:26:35.892Z,37952.00
2023-02-17T10:27:35.873Z,37120.00
2023-02-17T10:28:35.855Z,33120.00
2023-02-17T10:29:35.796Z,30400.00
2023-02-17T10:30:35.839Z,28416.00
2023-02-17T10:31:35.894Z,26144.00
2023-02-17T10:32:36.104Z,24416.00
2023-02-17T10:33:35.834Z,22880.00
2023-02-17T10:34:35.763Z,21824.00
2023-02-17T10:35:35.751Z,21216.00
2023-02-17T10:36:35.751Z,20384.00
2023-02-17T10:37:37.805Z,19392.00
2023-02-17T10:38:35.800Z,18656.00
2023-02-17T10:39:35.703Z,18272.00
2023-02-17T10:40:35.671Z,17632.00
2023-02-17T10:41:35.676Z,16948.00
2023-02-17T10:42:35.647Z,16880.00
2023-02-17T10:43:35.640Z,16260.00
2023-02-17T10:44:35.779Z,15308.00
2023-02-17T10:45:35.633Z,14228.00
2023-02-17T10:46:35.641Z,13716.00
2023-02-17T10:47:35.623Z,14040.00
2023-02-17T10:48:35.592Z,15312.00
2023-02-17T10:49:35.572Z,16716.00
2023-02-17T10:50:35.573Z,18464.00
2023-02-17T10:51:35.557Z,20064.00
2023-02-17T10:52:35.540Z,21984.00
2023-02-17T10:53:35.551Z,23520.00
2023-02-17T10:54:35.531Z,24768.00
2023-02-17T10:55:35.531Z,25312.00
2023-02-17T10:56:35.505Z,26880.00
2023-02-17T10:57:35.495Z,28960.00
2023-02-17T10:58:35.473Z,29824.00
2023-02-17T10:59:35.482Z,29216.00
2023-02-17T11:00:35.490Z,28288.00
2023-02-17T11:01:35.457Z,27136.00
2023-02-17T11:02:35.454Z,27008.00
2023-02-17T11:03:35.445Z,27648.00
2023-02-17T11:04:35.408Z,28672.00
2023-02-17T11:05:35.424Z,29472.00
2023-02-17T11:06:35.385Z,31200.00
2023-02-17T11:07:35.379Z,33696.00
2023-02-17T11:08:35.392Z,31840.00
2023-02-17T11:09:35.356Z,29696.00
2023-02-17T11:10:35.342Z,32256.00
2023-02-17T11:11:35.369Z,32896.00
2023-02-17T11:12:35.335Z,33440.00
2023-02-17T11:13:35.316Z,51904.00
2023-02-17T11:14:35.301Z,43168.00
2023-02-17T11:15:35.292Z,92416.00
2023-02-17T11:16:35.364Z,89696.00
2023-02-17T11:17:35.304Z,89024.00
2023-02-17T11:18:35.257Z,90400.00
2023-02-17T11:19:35.264Z,90880.00
2023-02-17T11:20:35.233Z,92384.00
2023-02-17T11:21:35.226Z,89824.00
2023-02-17T11:22:35.220Z,87424.00
2023-02-17T11:23:35.251Z,82400.00
2023-02-17T11:24:35.216Z,83968.00
2023-02-17T11:25:35.184Z,77888.00
2023-02-17T11:26:35.198Z,77344.00
2023-02-17T11:27:35.179Z,79360.00
2023-02-17T11:28:35.175Z,76416.00
2023-02-17T11:29:35.173Z,79776.00
2023-02-17T11:30:35.124Z,81024.00
2023-02-17T11:31:35.245Z,79904.00
2023-02-17T11:32:35.102Z,84896.00
2023-02-17T11:33:35.096Z,88736.00
2023-02-17T11:34:35.186Z,95744.00
2023-02-17T11:35:35.083Z,100800.00
2023-02-17T11:36:35.063Z,101312.00
2023-02-17T11:37:35.052Z,88320.00
2023-02-17T11:38:35.037Z,87040.00
2023-02-17T11:39:35.032Z,90880.00
2023-02-17T11:40:35.028Z,100000.00
2023-02-17T11:41:35.026Z,87808.00
2023-02-17T11:42:34.995Z,73408.00
2023-02-17T11:43:35.010Z,52160.00
2023-02-17T11:44:34.974Z,48064.00
2023-02-17T11:45:35.063Z,86208.00
2023-02-17T11:46:34.954Z,91712.00
2023-02-17T11:47:34.961Z,94048.00
2023-02-17T11:48:34.936Z,96000.00
2023-02-17T11:49:34.926Z,108672.00
2023-02-17T11:50:41.817Z,105152.00
2023-02-17T11:51:35.915Z,103424.00
2023-02-17T11:52:34.896Z,110080.00
2023-02-17T11:53:34.902Z,82464.00
2023-02-17T11:54:34.868Z,110144.00
2023-02-17T11:55:34.867Z,106912.00
2023-02-17T11:56:34.861Z,109984.00
2023-02-17T11:57:34.848Z,88384.00
2023-02-17T11:58:34.820Z,72864.00
2023-02-17T11:59:34.836Z,43520.00
2023-02-17T12:00:34.798Z,22464.00
2023-02-17T12:01:34.798Z,45824.00
2023-02-17T12:02:34.773Z,92064.00
2023-02-17T12:03:36.761Z,30080.00
2023-02-17T12:04:34.751Z,40576.00
2023-02-17T12:05:34.758Z,29728.00
2023-02-17T12:06:34.727Z,28928.00
2023-02-17T12:07:34.731Z,33824.00
2023-02-17T12:08:34.708Z,33216.00
2023-02-17T12:09:34.697Z,31680.00
2023-02-17T12:10:34.693Z,32544.00
2023-02-17T12:11:34.688Z,37312.00
2023-02-17T12:12:34.673Z,34816.00
2023-02-17T12:13:34.753Z,36256.00
2023-02-17T12:14:34.638Z,39584.00
2023-02-17T12:15:34.647Z,37600.00
2023-02-17T12:16:34.672Z,38528.00
2023-02-17T12:17:34.633Z,39552.00
2023-02-17T12:18:34.607Z,39840.00
2023-02-17T12:19:36.959Z,36864.00
2023-02-17T12:20:34.571Z,35840.00
2023-02-17T12:21:34.562Z,36704.00
2023-02-17T12:22:34.549Z,41504.00
2023-02-17T12:23:34.558Z,57088.00
2023-02-17T12:24:34.532Z,37152.00
2023-02-17T12:25:34.524Z,31392.00
2023-02-17T12:26:34.520Z,31296.00
2023-02-17T12:27:34.491Z,26496.00
2023-02-17T12:28:34.483Z,26400.00
2023-02-17T12:29:34.482Z,27168.00
2023-02-17T12:30:34.622Z,27584.00